sensor_id;sensor_type;location;lat;lon;timestamp;P1;durP1;ratioP1;P2;durP2;ratioP2
14907;SDS011;7545;52.092;7.006;2023-07-20T00:01:13;2.85;;;2.55;;
14907;SDS011;7545;52.092;7.006;2023-07-20T00:03:39;3.38;;;2.40;;
14907;SDS011;7545;52.092;7.006;2023-07-20T00:06:04;2.72;;;2.38;;
14907;SDS011;7545;52.092;7.006;2023-07-20T00:08:30;2.88;;;2.28;;
14907;SDS011;7545;52.092;7.006;2023-07-20T00:10:56;6.50;;;2.67;;
14907;SDS011;7545;52.092;7.006;2023-07-20T00:13:21;5.78;;;2.25;;
14907;SDS011;7545;52.092;7.006;2023-07-20T00:15:47;3.17;;;2.65;;
14907;SDS011;7545;52.092;7.006;2023-07-20T00:18:13;3.83;;;2.20;;
14907;SDS011;7545;52.092;7.006;2023-07-20T00:20:38;3.70;;;2.55;;
14907;SDS011;7545;52.092;7.006;2023-07-20T00:23:04;3.17;;;2.58;;
14907;SDS011;7545;52.092;7.006;2023-07-20T00:25:30;6.70;;;2.50;;
14907;SDS011;7545;52.092;7.006;2023-07-20T00:27:56;4.88;;;2.40;;
14907;SDS011;7545;52.092;7.006;2023-07-20T00:30:21;2.65;;;2.40;;
14907;SDS011;7545;52.092;7.006;2023-07-20T00:32:47;3.67;;;2.97;;
14907;SDS011;7545;52.092;7.006;2023-07-20T00:35:12;3.25;;;2.78;;
14907;SDS011;7545;52.092;7.006;2023-07-20T00:37:39;5.47;;;3.00;;
14907;SDS011;7545;52.092;7.006;2023-07-20T00:40:05;6.57;;;3.05;;
14907;SDS011;7545;52.092;7.006;2023-07-20T00:42:34;5.38;;;2.92;;
14907;SDS011;7545;52.092;7.006;2023-07-20T00:44:59;5.88;;;3.20;;
14907;SDS011;7545;52.092;7.006;2023-07-20T00:47:25;4.60;;;3.88;;
14907;SDS011;7545;52.092;7.006;2023-07-20T00:49:52;3.53;;;3.00;;
14907;SDS011;7545;52.092;7.006;2023-07-20T00:52:18;4.65;;;3.78;;
14907;SDS011;7545;52.092;7.006;2023-07-20T00:54:46;7.03;;;3.60;;
14907;SDS011;7545;52.092;7.006;2023-07-20T00:57:14;4.25;;;3.47;;
14907;SDS011;7545;52.092;7.006;2023-07-20T00:59:40;4.13;;;3.72;;
14907;SDS011;7545;52.092;7.006;2023-07-20T01:02:05;4.07;;;3.67;;
14907;SDS011;7545;52.092;7.006;2023-07-20T01:04:31;6.05;;;4.45;;
14907;SDS011;7545;52.092;7.006;2023-07-20T01:06:59;3.78;;;3.00;;
14907;SDS011;7545;52.092;7.006;2023-07-20T01:09:33;3.97;;;3.08;;
14907;SDS011;7545;52.092;7.006;2023-07-20T01:15:08;4.55;;;2.67;;
14907;SDS011;7545;52.092;7.006;2023-07-20T01:17:35;3.17;;;2.65;;
14907;SDS011;7545;52.092;7.006;2023-07-20T01:20:01;3.85;;;3.13;;
14907;SDS011;7545;52.092;7.006;2023-07-20T01:33:38;3.35;;;2.60;;
14907;SDS011;7545;52.092;7.006;2023-07-20T01:36:05;5.38;;;3.92;;
14907;SDS011;7545;52.092;7.006;2023-07-20T01:38:32;4.95;;;3.58;;
14907;SDS011;7545;52.092;7.006;2023-07-20T01:40:58;3.95;;;3.55;;
14907;SDS011;7545;52.092;7.006;2023-07-20T01:43:24;4.07;;;3.55;;
14907;SDS011;7545;52.092;7.006;2023-07-20T01:45:49;3.95;;;3.22;;
14907;SDS011;7545;52.092;7.006;2023-07-20T01:48:15;3.72;;;3.22;;
14907;SDS011;7545;52.092;7.006;2023-07-20T01:50:40;4.38;;;3.60;;
14907;SDS011;7545;52.092;7.006;2023-07-20T01:53:06;4.38;;;3.35;;
14907;SDS011;7545;52.092;7.006;2023-07-20T01:55:32;4.68;;;3.78;;
14907;SDS011;7545;52.092;7.006;2023-07-20T01:58:00;3.72;;;3.25;;
14907;SDS011;7545;52.092;7.006;2023-07-20T02:00:26;3.88;;;3.40;;
14907;SDS011;7545;52.092;7.006;2023-07-20T02:02:52;4.07;;;3.40;;
14907;SDS011;7545;52.092;7.006;2023-07-20T02:05:18;4.00;;;3.47;;
14907;SDS011;7545;52.092;7.006;2023-07-20T02:07:43;6.15;;;3.92;;
14907;SDS011;7545;52.092;7.006;2023-07-20T02:10:09;5.82;;;3.47;;
14907;SDS011;7545;52.092;7.006;2023-07-20T02:12:35;4.57;;;3.60;;
14907;SDS011;7545;52.092;7.006;2023-07-20T02:15:01;4.38;;;3.78;;
14907;SDS011;7545;52.092;7.006;2023-07-20T02:17:27;4.18;;;3.78;;
14907;SDS011;7545;52.092;7.006;2023-07-20T02:19:53;5.63;;;3.75;;
14907;SDS011;7545;52.092;7.006;2023-07-20T02:22:19;7.22;;;4.03;;
14907;SDS011;7545;52.092;7.006;2023-07-20T02:24:45;5.78;;;3.35;;
14907;SDS011;7545;52.092;7.006;2023-07-20T02:27:11;3.65;;;3.33;;
14907;SDS011;7545;52.092;7.006;2023-07-20T02:29:37;4.95;;;3.47;;
14907;SDS011;7545;52.092;7.006;2023-07-20T02:32:03;3.38;;;3.08;;
14907;SDS011;7545;52.092;7.006;2023-07-20T02:34:29;3.70;;;3.40;;
14907;SDS011;7545;52.092;7.006;2023-07-20T02:36:55;3.80;;;3.33;;
14907;SDS011;7545;52.092;7.006;2023-07-20T02:39:28;3.38;;;3.08;;
14907;SDS011;7545;52.092;7.006;2023-07-20T02:41:54;2.70;;;2.50;;
14907;SDS011;7545;52.092;7.006;2023-07-20T02:44:20;3.53;;;2.38;;
14907;SDS011;7545;52.092;7.006;2023-07-20T02:46:46;3.05;;;2.75;;
14907;SDS011;7545;52.092;7.006;2023-07-20T02:49:14;3.35;;;2.28;;
14907;SDS011;7545;52.092;7.006;2023-07-20T02:51:43;2.85;;;2.55;;
14907;SDS011;7545;52.092;7.006;2023-07-20T02:54:08;3.35;;;2.45;;
14907;SDS011;7545;52.092;7.006;2023-07-20T02:56:34;2.50;;;2.20;;
14907;SDS011;7545;52.092;7.006;2023-07-20T02:59:00;2.53;;;2.33;;
14907;SDS011;7545;52.092;7.006;2023-07-20T03:01:26;2.80;;;2.17;;
14907;SDS011;7545;52.092;7.006;2023-07-20T03:03:54;2.28;;;2.08;;
14907;SDS011;7545;52.092;7.006;2023-07-20T03:06:20;3.00;;;2.70;;
14907;SDS011;7545;52.092;7.006;2023-07-20T03:08:46;3.03;;;2.05;;
14907;SDS011;7545;52.092;7.006;2023-07-20T03:11:18;2.50;;;2.30;;
14907;SDS011;7545;52.092;7.006;2023-07-20T03:13:45;2.42;;;2.22;;
14907;SDS011;7545;52.092;7.006;2023-07-20T03:16:13;2.97;;;2.65;;
14907;SDS011;7545;52.092;7.006;2023-07-20T03:18:42;2.15;;;1.95;;
14907;SDS011;7545;52.092;7.006;2023-07-20T03:21:08;2.58;;;2.20;;
14907;SDS011;7545;52.092;7.006;2023-07-20T03:23:38;2.22;;;2.03;;
14907;SDS011;7545;52.092;7.006;2023-07-20T03:26:04;3.88;;;2.83;;
14907;SDS011;7545;52.092;7.006;2023-07-20T03:28:30;2.38;;;2.17;;
14907;SDS011;7545;52.092;7.006;2023-07-20T03:30:56;2.70;;;2.30;;
14907;SDS011;7545;52.092;7.006;2023-07-20T03:33:22;2.50;;;2.30;;
14907;SDS011;7545;52.092;7.006;2023-07-20T03:35:50;3.63;;;2.60;;
14907;SDS011;7545;52.092;7.006;2023-07-20T03:38:15;2.97;;;2.78;;
14907;SDS011;7545;52.092;7.006;2023-07-20T03:40:48;2.55;;;2.35;;
14907;SDS011;7545;52.092;7.006;2023-07-20T03:43:15;3.20;;;2.90;;
14907;SDS011;7545;52.092;7.006;2023-07-20T03:45:41;2.97;;;2.63;;
14907;SDS011;7545;52.092;7.006;2023-07-20T03:48:16;3.80;;;3.10;;
14907;SDS011;7545;52.092;7.006;2023-07-20T03:50:44;2.95;;;2.70;;
14907;SDS011;7545;52.092;7.006;2023-07-20T03:53:10;3.67;;;2.95;;
14907;SDS011;7545;52.092;7.006;2023-07-20T03:55:36;4.18;;;2.65;;
14907;SDS011;7545;52.092;7.006;2023-07-20T03:58:02;3.63;;;3.05;;
14907;SDS011;7545;52.092;7.006;2023-07-20T04:00:28;3.95;;;3.33;;
14907;SDS011;7545;52.092;7.006;2023-07-20T04:02:54;3.50;;;2.75;;
14907;SDS011;7545;52.092;7.006;2023-07-20T04:05:19;3.58;;;2.90;;
14907;SDS011;7545;52.092;7.006;2023-07-20T04:07:45;4.53;;;3.03;;
14907;SDS011;7545;52.092;7.006;2023-07-20T04:10:10;4.75;;;3.08;;
14907;SDS011;7545;52.092;7.006;2023-07-20T04:12:36;5.03;;;2.72;;
14907;SDS011;7545;52.092;7.006;2023-07-20T04:15:02;3.67;;;3.15;;
14907;SDS011;7545;52.092;7.006;2023-07-20T04:17:28;3.47;;;2.95;;
14907;SDS011;7545;52.092;7.006;2023-07-20T04:19:54;4.22;;;3.05;;
14907;SDS011;7545;52.092;7.006;2023-07-20T04:22:19;3.70;;;3.00;;
14907;SDS011;7545;52.092;7.006;2023-07-20T04:24:46;3.88;;;2.83;;
14907;SDS011;7545;52.092;7.006;2023-07-20T04:27:12;3.17;;;2.88;;
14907;SDS011;7545;52.092;7.006;2023-07-20T04:29:37;3.47;;;3.13;;
14907;SDS011;7545;52.092;7.006;2023-07-20T04:32:03;3.33;;;3.03;;
14907;SDS011;7545;52.092;7.006;2023-07-20T04:34:29;3.95;;;3.28;;
14907;SDS011;7545;52.092;7.006;2023-07-20T04:36:54;4.10;;;3.40;;
14907;SDS011;7545;52.092;7.006;2023-07-20T04:39:20;4.90;;;4.05;;
14907;SDS011;7545;52.092;7.006;2023-07-20T04:41:45;3.33;;;3.03;;
14907;SDS011;7545;52.092;7.006;2023-07-20T04:44:11;3.80;;;3.38;;
14907;SDS011;7545;52.092;7.006;2023-07-20T04:46:38;3.42;;;3.13;;
14907;SDS011;7545;52.092;7.006;2023-07-20T04:49:05;3.85;;;3.47;;
14907;SDS011;7545;52.092;7.006;2023-07-20T04:51:30;3.50;;;3.20;;
14907;SDS011;7545;52.092;7.006;2023-07-20T04:53:56;3.47;;;3.13;;
14907;SDS011;7545;52.092;7.006;2023-07-20T04:56:22;3.13;;;2.88;;
14907;SDS011;7545;52.092;7.006;2023-07-20T04:58:48;3.90;;;3.47;;
14907;SDS011;7545;52.092;7.006;2023-07-20T05:01:14;3.38;;;3.08;;
14907;SDS011;7545;52.092;7.006;2023-07-20T05:03:39;3.40;;;3.00;;
14907;SDS011;7545;52.092;7.006;2023-07-20T05:06:05;3.42;;;2.63;;
14907;SDS011;7545;52.092;7.006;2023-07-20T05:08:30;3.90;;;3.50;;
14907;SDS011;7545;52.092;7.006;2023-07-20T05:10:56;3.65;;;3.30;;
14907;SDS011;7545;52.092;7.006;2023-07-20T05:13:23;3.95;;;3.08;;
14907;SDS011;7545;52.092;7.006;2023-07-20T05:15:52;6.88;;;3.22;;
14907;SDS011;7545;52.092;7.006;2023-07-20T05:18:18;4.30;;;2.80;;
14907;SDS011;7545;52.092;7.006;2023-07-20T05:20:46;4.45;;;3.05;;
14907;SDS011;7545;52.092;7.006;2023-07-20T05:23:12;3.25;;;2.80;;
14907;SDS011;7545;52.092;7.006;2023-07-20T05:25:38;2.90;;;2.60;;
14907;SDS011;7545;52.092;7.006;2023-07-20T05:28:04;3.17;;;2.60;;
14907;SDS011;7545;52.092;7.006;2023-07-20T05:30:29;2.95;;;2.72;;
14907;SDS011;7545;52.092;7.006;2023-07-20T05:32:55;2.80;;;2.55;;
14907;SDS011;7545;52.092;7.006;2023-07-20T05:35:21;2.88;;;2.63;;
14907;SDS011;7545;52.092;7.006;2023-07-20T05:37:47;3.67;;;2.40;;
14907;SDS011;7545;52.092;7.006;2023-07-20T05:40:14;2.40;;;2.20;;
14907;SDS011;7545;52.092;7.006;2023-07-20T05:42:43;2.60;;;2.15;;
14907;SDS011;7545;52.092;7.006;2023-07-20T05:45:17;3.08;;;2.78;;
14907;SDS011;7545;52.092;7.006;2023-07-20T05:47:43;2.72;;;2.20;;
14907;SDS011;7545;52.092;7.006;2023-07-20T05:50:09;2.92;;;2.33;;
14907;SDS011;7545;52.092;7.006;2023-07-20T05:52:35;2.70;;;2.13;;
14907;SDS011;7545;52.092;7.006;2023-07-20T05:55:02;2.53;;;2.33;;
14907;SDS011;7545;52.092;7.006;2023-07-20T05:57:28;4.47;;;1.80;;
14907;SDS011;7545;52.092;7.006;2023-07-20T05:59:54;2.28;;;1.88;;
14907;SDS011;7545;52.092;7.006;2023-07-20T06:02:19;1.98;;;1.80;;
14907;SDS011;7545;52.092;7.006;2023-07-20T06:04:45;2.22;;;2.03;;
14907;SDS011;7545;52.092;7.006;2023-07-20T06:07:11;2.00;;;1.77;;
14907;SDS011;7545;52.092;7.006;2023-07-20T06:09:36;2.13;;;1.92;;
14907;SDS011;7545;52.092;7.006;2023-07-20T06:12:02;2.20;;;2.00;;
14907;SDS011;7545;52.092;7.006;2023-07-20T06:14:27;2.08;;;1.95;;
14907;SDS011;7545;52.092;7.006;2023-07-20T06:16:53;3.05;;;2.25;;
14907;SDS011;7545;52.092;7.006;2023-07-20T06:19:19;2.55;;;2.00;;
14907;SDS011;7545;52.092;7.006;2023-07-20T06:21:44;1.80;;;1.70;;
14907;SDS011;7545;52.092;7.006;2023-07-20T06:24:10;2.13;;;1.92;;
14907;SDS011;7545;52.092;7.006;2023-07-20T06:26:35;2.40;;;1.92;;
14907;SDS011;7545;52.092;7.006;2023-07-20T06:29:04;1.70;;;1.60;;
14907;SDS011;7545;52.092;7.006;2023-07-20T06:31:36;2.22;;;1.88;;
14907;SDS011;7545;52.092;7.006;2023-07-20T06:34:02;3.58;;;2.53;;
14907;SDS011;7545;52.092;7.006;2023-07-20T06:36:28;2.28;;;2.00;;
14907;SDS011;7545;52.092;7.006;2023-07-20T06:38:55;2.75;;;2.08;;
14907;SDS011;7545;52.092;7.006;2023-07-20T06:41:21;2.45;;;2.00;;
14907;SDS011;7545;52.092;7.006;2023-07-20T06:43:47;4.18;;;2.50;;
14907;SDS011;7545;52.092;7.006;2023-07-20T06:46:13;3.22;;;2.20;;
14907;SDS011;7545;52.092;7.006;2023-07-20T06:48:39;2.42;;;2.22;;
14907;SDS011;7545;52.092;7.006;2023-07-20T06:51:04;2.95;;;2.63;;
14907;SDS011;7545;52.092;7.006;2023-07-20T06:53:30;8.35;;;2.22;;
14907;SDS011;7545;52.092;7.006;2023-07-20T06:55:56;3.20;;;1.42;;
14907;SDS011;7545;52.092;7.006;2023-07-20T06:58:22;1.65;;;1.55;;
14907;SDS011;7545;52.092;7.006;2023-07-20T07:00:49;1.83;;;1.70;;
14907;SDS011;7545;52.092;7.006;2023-07-20T07:03:14;2.03;;;1.73;;
14907;SDS011;7545;52.092;7.006;2023-07-20T07:05:40;2.78;;;1.95;;
14907;SDS011;7545;52.092;7.006;2023-07-20T07:08:05;2.38;;;2.15;;
14907;SDS011;7545;52.092;7.006;2023-07-20T07:10:32;2.47;;;1.30;;
14907;SDS011;7545;52.092;7.006;2023-07-20T07:12:58;1.50;;;0.95;;
14907;SDS011;7545;52.092;7.006;2023-07-20T07:15:24;1.10;;;1.02;;
14907;SDS011;7545;52.092;7.006;2023-07-20T07:17:49;1.35;;;1.02;;
14907;SDS011;7545;52.092;7.006;2023-07-20T07:20:15;2.05;;;0.80;;
14907;SDS011;7545;52.092;7.006;2023-07-20T07:22:41;1.02;;;0.90;;
14907;SDS011;7545;52.092;7.006;2023-07-20T07:25:09;1.98;;;1.10;;
14907;SDS011;7545;52.092;7.006;2023-07-20T07:27:35;1.00;;;0.90;;
14907;SDS011;7545;52.092;7.006;2023-07-20T07:30:01;1.52;;;1.13;;
14907;SDS011;7545;52.092;7.006;2023-07-20T07:32:27;1.75;;;0.80;;
14907;SDS011;7545;52.092;7.006;2023-07-20T07:34:52;0.63;;;0.63;;
14907;SDS011;7545;52.092;7.006;2023-07-20T07:37:18;0.47;;;0.47;;
14907;SDS011;7545;52.092;7.006;2023-07-20T07:39:44;1.17;;;0.85;;
14907;SDS011;7545;52.092;7.006;2023-07-20T07:42:11;1.10;;;0.63;;
14907;SDS011;7545;52.092;7.006;2023-07-20T07:44:37;1.02;;;0.75;;
14907;SDS011;7545;52.092;7.006;2023-07-20T07:47:03;0.88;;;0.70;;
14907;SDS011;7545;52.092;7.006;2023-07-20T07:49:28;1.02;;;0.80;;
14907;SDS011;7545;52.092;7.006;2023-07-20T07:51:54;1.83;;;0.88;;
14907;SDS011;7545;52.092;7.006;2023-07-20T07:54:19;3.10;;;0.75;;
14907;SDS011;7545;52.092;7.006;2023-07-20T07:56:45;1.73;;;0.60;;
14907;SDS011;7545;52.092;7.006;2023-07-20T07:59:11;0.95;;;0.65;;
14907;SDS011;7545;52.092;7.006;2023-07-20T08:01:36;0.80;;;0.70;;
14907;SDS011;7545;52.092;7.006;2023-07-20T08:04:02;1.05;;;0.63;;
14907;SDS011;7545;52.092;7.006;2023-07-20T08:06:28;0.70;;;0.50;;
14907;SDS011;7545;52.092;7.006;2023-07-20T08:08:54;0.45;;;0.45;;
14907;SDS011;7545;52.092;7.006;2023-07-20T08:11:19;0.82;;;0.55;;
14907;SDS011;7545;52.092;7.006;2023-07-20T08:13:45;0.65;;;0.52;;
14907;SDS011;7545;52.092;7.006;2023-07-20T08:16:11;1.63;;;1.23;;
14907;SDS011;7545;52.092;7.006;2023-07-20T08:18:36;2.65;;;0.70;;
14907;SDS011;7545;52.092;7.006;2023-07-20T08:21:02;1.02;;;0.60;;
14907;SDS011;7545;52.092;7.006;2023-07-20T08:23:28;2.22;;;0.75;;
14907;SDS011;7545;52.092;7.006;2023-07-20T08:25:54;0.50;;;0.50;;
14907;SDS011;7545;52.092;7.006;2023-07-20T08:28:19;0.80;;;0.40;;
14907;SDS011;7545;52.092;7.006;2023-07-20T08:30:45;0.55;;;0.40;;
14907;SDS011;7545;52.092;7.006;2023-07-20T08:33:16;3.63;;;0.50;;
14907;SDS011;7545;52.092;7.006;2023-07-20T08:35:46;0.50;;;0.40;;
14907;SDS011;7545;52.092;7.006;2023-07-20T08:38:12;1.05;;;0.52;;
14907;SDS011;7545;52.092;7.006;2023-07-20T08:40:39;4.78;;;1.95;;
14907;SDS011;7545;52.092;7.006;2023-07-20T08:43:06;0.77;;;0.63;;
14907;SDS011;7545;52.092;7.006;2023-07-20T08:45:34;0.60;;;0.45;;
14907;SDS011;7545;52.092;7.006;2023-07-20T08:48:03;1.23;;;0.60;;
14907;SDS011;7545;52.092;7.006;2023-07-20T08:50:30;0.68;;;0.60;;
14907;SDS011;7545;52.092;7.006;2023-07-20T08:52:57;0.80;;;0.52;;
14907;SDS011;7545;52.092;7.006;2023-07-20T08:55:24;1.00;;;0.50;;
14907;SDS011;7545;52.092;7.006;2023-07-20T08:57:52;0.60;;;0.50;;
14907;SDS011;7545;52.092;7.006;2023-07-20T09:00:20;2.42;;;0.60;;
14907;SDS011;7545;52.092;7.006;2023-07-20T09:02:48;1.30;;;0.68;;
14907;SDS011;7545;52.092;7.006;2023-07-20T09:05:15;0.60;;;0.60;;
14907;SDS011;7545;52.092;7.006;2023-07-20T09:07:41;2.47;;;0.60;;
14907;SDS011;7545;52.092;7.006;2023-07-20T09:10:07;2.53;;;0.65;;
14907;SDS011;7545;52.092;7.006;2023-07-20T09:12:37;0.80;;;0.70;;
14907;SDS011;7545;52.092;7.006;2023-07-20T09:15:04;1.38;;;0.70;;
14907;SDS011;7545;52.092;7.006;2023-07-20T09:17:31;0.90;;;0.57;;
14907;SDS011;7545;52.092;7.006;2023-07-20T09:19:56;2.47;;;0.70;;
14907;SDS011;7545;52.092;7.006;2023-07-20T09:22:23;2.22;;;0.75;;
14907;SDS011;7545;52.092;7.006;2023-07-20T09:24:55;1.08;;;0.75;;
14907;SDS011;7545;52.092;7.006;2023-07-20T09:27:21;0.70;;;0.57;;
14907;SDS011;7545;52.092;7.006;2023-07-20T09:29:50;1.60;;;0.60;;
14907;SDS011;7545;52.092;7.006;2023-07-20T09:32:20;0.73;;;0.50;;
14907;SDS011;7545;52.092;7.006;2023-07-20T09:34:46;1.60;;;0.75;;
14907;SDS011;7545;52.092;7.006;2023-07-20T09:37:14;0.63;;;0.45;;
14907;SDS011;7545;52.092;7.006;2023-07-20T09:39:46;1.00;;;0.60;;
14907;SDS011;7545;52.092;7.006;2023-07-20T09:42:12;1.17;;;1.05;;
14907;SDS011;7545;52.092;7.006;2023-07-20T09:44:38;1.63;;;0.60;;
14907;SDS011;7545;52.092;7.006;2023-07-20T09:47:04;1.42;;;0.60;;
14907;SDS011;7545;52.092;7.006;2023-07-20T09:49:30;0.75;;;0.63;;
14907;SDS011;7545;52.092;7.006;2023-07-20T09:51:59;0.70;;;0.50;;
14907;SDS011;7545;52.092;7.006;2023-07-20T09:54:27;3.22;;;0.50;;
14907;SDS011;7545;52.092;7.006;2023-07-20T09:56:54;0.93;;;0.50;;
14907;SDS011;7545;52.092;7.006;2023-07-20T09:59:21;0.70;;;0.70;;
14907;SDS011;7545;52.092;7.006;2023-07-20T10:01:47;1.25;;;0.85;;
14907;SDS011;7545;52.092;7.006;2023-07-20T10:04:14;1.60;;;0.95;;
14907;SDS011;7545;52.092;7.006;2023-07-20T10:06:42;0.90;;;0.50;;
14907;SDS011;7545;52.092;7.006;2023-07-20T10:09:08;1.40;;;1.30;;
14907;SDS011;7545;52.092;7.006;2023-07-20T10:11:38;3.45;;;2.00;;
14907;SDS011;7545;52.092;7.006;2023-07-20T10:14:08;6.50;;;5.63;;
14907;SDS011;7545;52.092;7.006;2023-07-20T10:16:39;2.85;;;2.17;;
14907;SDS011;7545;52.092;7.006;2023-07-20T10:19:17;5.28;;;2.83;;
14907;SDS011;7545;52.092;7.006;2023-07-20T10:21:56;3.22;;;2.22;;
14907;SDS011;7545;52.092;7.006;2023-07-20T10:24:28;1.40;;;1.23;;
14907;SDS011;7545;52.092;7.006;2023-07-20T10:26:55;1.10;;;0.80;;
14907;SDS011;7545;52.092;7.006;2023-07-20T10:29:21;1.98;;;0.65;;
14907;SDS011;7545;52.092;7.006;2023-07-20T10:31:48;1.15;;;0.35;;
14907;SDS011;7545;52.092;7.006;2023-07-20T10:34:14;3.50;;;0.40;;
14907;SDS011;7545;52.092;7.006;2023-07-20T10:36:44;0.40;;;0.32;;
14907;SDS011;7545;52.092;7.006;2023-07-20T10:39:26;0.93;;;0.50;;
14907;SDS011;7545;52.092;7.006;2023-07-20T10:42:03;0.65;;;0.43;;
14907;SDS011;7545;52.092;7.006;2023-07-20T10:44:32;2.42;;;0.50;;
14907;SDS011;7545;52.092;7.006;2023-07-20T10:47:02;0.80;;;0.65;;
14907;SDS011;7545;52.092;7.006;2023-07-20T10:49:32;0.50;;;0.40;;
14907;SDS011;7545;52.092;7.006;2023-07-20T10:51:59;0.50;;;0.30;;
14907;SDS011;7545;52.092;7.006;2023-07-20T10:54:35;1.23;;;0.30;;
14907;SDS011;7545;52.092;7.006;2023-07-20T10:57:23;0.45;;;0.40;;
14907;SDS011;7545;52.092;7.006;2023-07-20T10:59:53;0.70;;;0.40;;
14907;SDS011;7545;52.092;7.006;2023-07-20T11:02:46;0.68;;;0.50;;
14907;SDS011;7545;52.092;7.006;2023-07-20T11:05:31;0.80;;;0.43;;
14907;SDS011;7545;52.092;7.006;2023-07-20T11:08:02;2.53;;;0.60;;
14907;SDS011;7545;52.092;7.006;2023-07-20T11:10:29;0.75;;;0.40;;
14907;SDS011;7545;52.092;7.006;2023-07-20T11:18:12;0.70;;;0.40;;
14907;SDS011;7545;52.092;7.006;2023-07-20T11:20:38;1.52;;;0.60;;
14907;SDS011;7545;52.092;7.006;2023-07-20T11:23:04;0.98;;;0.50;;
14907;SDS011;7545;52.092;7.006;2023-07-20T11:25:39;0.73;;;0.43;;
14907;SDS011;7545;52.092;7.006;2023-07-20T11:28:08;0.63;;;0.30;;
14907;SDS011;7545;52.092;7.006;2023-07-20T11:30:36;0.77;;;0.32;;
14907;SDS011;7545;52.092;7.006;2023-07-20T11:33:02;0.40;;;0.30;;
14907;SDS011;7545;52.092;7.006;2023-07-20T11:35:28;0.90;;;0.50;;
14907;SDS011;7545;52.092;7.006;2023-07-20T11:37:54;0.60;;;0.30;;
14907;SDS011;7545;52.092;7.006;2023-07-20T11:40:20;0.75;;;0.38;;
14907;SDS011;7545;52.092;7.006;2023-07-20T11:42:47;0.50;;;0.40;;
14907;SDS011;7545;52.092;7.006;2023-07-20T11:45:15;0.30;;;0.20;;
14907;SDS011;7545;52.092;7.006;2023-07-20T11:47:44;0.47;;;0.40;;
14907;SDS011;7545;52.092;7.006;2023-07-20T11:50:10;0.28;;;0.28;;
14907;SDS011;7545;52.092;7.006;2023-07-20T11:52:38;0.43;;;0.40;;
14907;SDS011;7545;52.092;7.006;2023-07-20T11:55:05;0.75;;;0.30;;
14907;SDS011;7545;52.092;7.006;2023-07-20T11:57:32;0.95;;;0.40;;
14907;SDS011;7545;52.092;7.006;2023-07-20T12:00:00;0.32;;;0.30;;
14907;SDS011;7545;52.092;7.006;2023-07-20T12:02:31;0.30;;;0.28;;
14907;SDS011;7545;52.092;7.006;2023-07-20T12:04:57;0.60;;;0.40;;
14907;SDS011;7545;52.092;7.006;2023-07-20T12:07:25;1.35;;;0.40;;
14907;SDS011;7545;52.092;7.006;2023-07-20T12:10:02;1.40;;;0.50;;
14907;SDS011;7545;52.092;7.006;2023-07-20T12:12:31;1.80;;;0.70;;
14907;SDS011;7545;52.092;7.006;2023-07-20T12:17:46;1.58;;;0.35;;
14907;SDS011;7545;52.092;7.006;2023-07-20T12:20:25;0.70;;;0.60;;
14907;SDS011;7545;52.092;7.006;2023-07-20T12:22:52;0.50;;;0.30;;
14907;SDS011;7545;52.092;7.006;2023-07-20T12:25:20;1.00;;;0.40;;
14907;SDS011;7545;52.092;7.006;2023-07-20T12:27:47;1.23;;;0.40;;
14907;SDS011;7545;52.092;7.006;2023-07-20T12:30:13;0.85;;;0.50;;
14907;SDS011;7545;52.092;7.006;2023-07-20T12:32:39;0.88;;;0.40;;
14907;SDS011;7545;52.092;7.006;2023-07-20T12:35:05;0.60;;;0.40;;
14907;SDS011;7545;52.092;7.006;2023-07-20T12:37:31;0.50;;;0.40;;
14907;SDS011;7545;52.092;7.006;2023-07-20T12:39:57;0.47;;;0.35;;
14907;SDS011;7545;52.092;7.006;2023-07-20T12:42:22;1.20;;;0.50;;
14907;SDS011;7545;52.092;7.006;2023-07-20T12:44:49;0.60;;;0.40;;
14907;SDS011;7545;52.092;7.006;2023-07-20T12:47:15;6.05;;;1.92;;
14907;SDS011;7545;52.092;7.006;2023-07-20T12:49:41;1.73;;;0.90;;
14907;SDS011;7545;52.092;7.006;2023-07-20T12:52:10;0.88;;;0.50;;
14907;SDS011;7545;52.092;7.006;2023-07-20T12:54:36;0.30;;;0.30;;
14907;SDS011;7545;52.092;7.006;2023-07-20T12:57:01;0.45;;;0.32;;
14907;SDS011;7545;52.092;7.006;2023-07-20T12:59:28;0.52;;;0.30;;
14907;SDS011;7545;52.092;7.006;2023-07-20T13:01:54;0.77;;;0.50;;
14907;SDS011;7545;52.092;7.006;2023-07-20T13:04:19;0.60;;;0.40;;
14907;SDS011;7545;52.092;7.006;2023-07-20T13:06:45;7.15;;;1.95;;
14907;SDS011;7545;52.092;7.006;2023-07-20T13:09:11;5.00;;;1.30;;
14907;SDS011;7545;52.092;7.006;2023-07-20T13:11:36;1.08;;;0.50;;
14907;SDS011;7545;52.092;7.006;2023-07-20T13:14:02;0.90;;;0.40;;
14907;SDS011;7545;52.092;7.006;2023-07-20T13:16:28;7.18;;;1.98;;
14907;SDS011;7545;52.092;7.006;2023-07-20T13:18:53;1.15;;;0.60;;
14907;SDS011;7545;52.092;7.006;2023-07-20T13:21:19;2.63;;;0.43;;
14907;SDS011;7545;52.092;7.006;2023-07-20T13:23:47;1.05;;;0.57;;
14907;SDS011;7545;52.092;7.006;2023-07-20T13:26:13;1.17;;;0.30;;
14907;SDS011;7545;52.092;7.006;2023-07-20T13:28:40;0.50;;;0.35;;
14907;SDS011;7545;52.092;7.006;2023-07-20T13:31:06;0.65;;;0.30;;
14907;SDS011;7545;52.092;7.006;2023-07-20T13:33:33;0.30;;;0.30;;
14907;SDS011;7545;52.092;7.006;2023-07-20T13:35:59;0.70;;;0.40;;
14907;SDS011;7545;52.092;7.006;2023-07-20T13:38:24;0.65;;;0.43;;
14907;SDS011;7545;52.092;7.006;2023-07-20T13:40:50;0.38;;;0.30;;
14907;SDS011;7545;52.092;7.006;2023-07-20T13:43:15;0.98;;;0.65;;
14907;SDS011;7545;52.092;7.006;2023-07-20T13:45:41;0.47;;;0.30;;
14907;SDS011;7545;52.092;7.006;2023-07-20T13:48:08;0.40;;;0.35;;
14907;SDS011;7545;52.092;7.006;2023-07-20T13:50:34;0.40;;;0.32;;
14907;SDS011;7545;52.092;7.006;2023-07-20T13:52:59;0.50;;;0.32;;
14907;SDS011;7545;52.092;7.006;2023-07-20T13:55:27;0.55;;;0.22;;
14907;SDS011;7545;52.092;7.006;2023-07-20T13:57:53;0.85;;;0.50;;
14907;SDS011;7545;52.092;7.006;2023-07-20T14:00:19;0.60;;;0.50;;
14907;SDS011;7545;52.092;7.006;2023-07-20T14:02:44;0.32;;;0.30;;
14907;SDS011;7545;52.092;7.006;2023-07-20T14:05:10;0.75;;;0.32;;
14907;SDS011;7545;52.092;7.006;2023-07-20T14:07:35;0.60;;;0.50;;
14907;SDS011;7545;52.092;7.006;2023-07-20T14:10:02;0.85;;;0.35;;
14907;SDS011;7545;52.092;7.006;2023-07-20T14:12:28;4.55;;;0.50;;
14907;SDS011;7545;52.092;7.006;2023-07-20T14:14:54;2.80;;;0.65;;
14907;SDS011;7545;52.092;7.006;2023-07-20T14:17:21;0.43;;;0.40;;
14907;SDS011;7545;52.092;7.006;2023-07-20T14:19:46;0.75;;;0.30;;
14907;SDS011;7545;52.092;7.006;2023-07-20T14:22:15;0.65;;;0.50;;
14907;SDS011;7545;52.092;7.006;2023-07-20T14:24:40;0.38;;;0.25;;
14907;SDS011;7545;52.092;7.006;2023-07-20T14:27:06;1.27;;;0.47;;
14907;SDS011;7545;52.092;7.006;2023-07-20T14:29:32;0.60;;;0.50;;
14907;SDS011;7545;52.092;7.006;2023-07-20T14:31:58;1.00;;;0.60;;
14907;SDS011;7545;52.092;7.006;2023-07-20T14:34:23;0.70;;;0.43;;
14907;SDS011;7545;52.092;7.006;2023-07-20T14:36:49;0.50;;;0.40;;
14907;SDS011;7545;52.092;7.006;2023-07-20T14:39:15;1.63;;;0.45;;
14907;SDS011;7545;52.092;7.006;2023-07-20T14:41:40;0.93;;;0.52;;
14907;SDS011;7545;52.092;7.006;2023-07-20T14:44:06;0.98;;;0.70;;
14907;SDS011;7545;52.092;7.006;2023-07-20T14:46:31;0.75;;;0.60;;
14907;SDS011;7545;52.092;7.006;2023-07-20T14:48:57;1.50;;;0.50;;
14907;SDS011;7545;52.092;7.006;2023-07-20T14:51:23;0.43;;;0.38;;
14907;SDS011;7545;52.092;7.006;2023-07-20T14:53:49;0.47;;;0.30;;
14907;SDS011;7545;52.092;7.006;2023-07-20T14:56:15;1.00;;;0.90;;
14907;SDS011;7545;52.092;7.006;2023-07-20T14:58:41;0.47;;;0.47;;
14907;SDS011;7545;52.092;7.006;2023-07-20T15:01:06;1.15;;;0.50;;
14907;SDS011;7545;52.092;7.006;2023-07-20T15:03:32;1.40;;;0.98;;
14907;SDS011;7545;52.092;7.006;2023-07-20T15:05:58;1.00;;;0.60;;
14907;SDS011;7545;52.092;7.006;2023-07-20T15:08:23;0.77;;;0.50;;
14907;SDS011;7545;52.092;7.006;2023-07-20T15:10:49;0.70;;;0.40;;
14907;SDS011;7545;52.092;7.006;2023-07-20T15:13:15;0.40;;;0.40;;
14907;SDS011;7545;52.092;7.006;2023-07-20T15:15:40;0.73;;;0.40;;
14907;SDS011;7545;52.092;7.006;2023-07-20T15:18:08;1.02;;;0.60;;
14907;SDS011;7545;52.092;7.006;2023-07-20T15:20:33;0.70;;;0.50;;